Time;durP1;ratioP1;P1;durP2;ratioP2;P2;SDS_P1;SDS_P2;PMS_P1;PMS_P2;Temp;Humidity;BMP_temperature;BMP_pressure;BME280_temperature;BME280_humidity;BME280_pressure;Samples;Min_cycle;Max_cycle;Signal;HPM_P1;HPM_P2
2023/05/01 00:02:00;;;;;;;15.17;10.53;;;;;;;-141.97;82.41;47630.56;5051599;28;20219;-80
2023/05/01 00:04:26;;;;;;;15.80;10.43;;;;;;;-141.97;82.33;47603.66;5056037;28;20160;-79
2023/05/01 00:06:51;;;;;;;14.27;10.30;;;;;;;-141.97;81.57;47599.81;5055673;28;20296;-79
2023/05/01 00:09:17;;;;;;;15.63;10.57;;;;;;;-141.97;81.05;47647.84;5055857;28;20165;-78
2023/05/01 00:11:42;;;;;;;16.30;10.60;;;;;;;-141.97;81.03;47615.19;5055529;28;20150;-79
2023/05/01 00:14:08;;;;;;;15.93;10.60;;;;;;;-141.97;80.71;47619.03;5038164;28;20535;-79
2023/05/01 00:16:34;;;;;;;14.67;10.00;;;;;;;-141.97;80.48;47638.25;5055881;28;20204;-80
2023/05/01 00:19:00;;;;;;;15.43;10.10;;;;;;;-141.97;80.96;47617.09;5056221;28;20146;-79
2023/05/01 00:21:27;;;;;;;15.77;10.93;;;;;;;-141.97;81.49;47619.03;5037717;28;20178;-79
2023/05/01 00:23:53;;;;;;;17.23;9.93;;;;;;;-141.97;81.76;47645.94;5055576;28;20591;-79
2023/05/01 00:26:18;;;;;;;16.00;9.73;;;;;;;-141.97;81.54;47619.03;5055668;28;20161;-79
2023/05/01 00:28:43;;;;;;;12.67;9.00;;;;;;;-141.97;81.21;47636.31;5055641;28;20189;-79
2023/05/01 00:31:09;;;;;;;12.73;8.90;;;;;;;-141.97;81.23;47615.19;5056145;28;20146;-78
2023/05/01 00:33:35;;;;;;;13.97;9.23;;;;;;;-141.97;80.91;47722.81;5038581;28;20622;-80
2023/05/01 00:36:00;;;;;;;13.67;8.77;;;;;;;-141.97;80.30;47607.50;5074504;28;20141;-77
2023/05/01 00:38:25;;;;;;;12.40;8.30;;;;;;;-141.97;80.07;47607.50;5060312;28;20225;-79
2023/05/01 00:40:51;;;;;;;14.50;9.10;;;;;;;-141.97;79.74;47626.72;5055513;28;20165;-79
2023/05/01 00:43:16;;;;;;;12.13;8.50;;;;;;;-141.97;80.07;47634.41;5054923;28;20165;-79
2023/05/01 00:45:47;;;;;;;13.53;8.73;;;;;;;-141.97;80.74;47628.63;5054064;28;20243;-80
2023/05/01 00:48:13;;;;;;;13.70;9.10;;;;;;;-141.97;81.25;47624.78;5036220;28;20216;-79
2023/05/01 00:50:39;;;;;;;14.63;9.53;;;;;;;-141.97;81.40;47599.81;5054095;28;20197;-79
2023/05/01 00:53:05;;;;;;;13.47;9.83;;;;;;;-141.97;82.29;47624.78;5054558;28;20157;-80
2023/05/01 00:55:32;;;;;;;14.53;9.17;;;;;;;-141.97;82.58;47651.69;5054969;28;20168;-79
2023/05/01 00:57:59;;;;;;;13.53;9.40;;;;;;;-141.97;82.86;47638.25;5053983;28;20610;-79
2023/05/01 01:00:24;;;;;;;13.80;9.53;;;;;;;-141.97;83.02;47603.66;5053917;28;20622;-78
2023/05/01 01:02:50;;;;;;;15.20;9.50;;;;;;;-141.97;83.27;47622.88;5054493;28;20197;-79
2023/05/01 01:05:16;;;;;;;16.13;9.30;;;;;;;-141.97;83.50;47634.41;5036363;28;20165;-79
2023/05/01 01:07:57;;;;;;;16.20;9.67;;;;;;;-141.97;83.75;47651.69;5053793;28;20246;-80
2023/05/01 01:10:41;;;;;;;17.17;10.20;;;;;;;-141.97;83.68;47642.09;5053991;28;20252;-78
2023/05/01 01:13:19;;;;;;;15.73;10.40;;;;;;;-141.97;83.74;47603.66;5036147;28;20169;-79
2023/05/01 01:15:51;;;;;;;15.03;10.07;;;;;;;-141.97;84.23;47684.38;5054063;28;20161;-79
2023/05/01 01:18:55;;;;;;;16.77;10.50;;;;;;;-141.97;84.85;47642.09;5053851;28;20168;-79
2023/05/01 01:21:40;;;;;;;16.43;10.27;;;;;;;-141.97;84.38;47657.47;4992731;28;20281;-80
2023/05/01 01:24:11;;;;;;;15.03;9.57;;;;;;;-141.97;84.42;47669.00;4992492;28;20261;-78
2023/05/01 01:27:11;;;;;;;17.87;10.60;;;;;;;-141.97;84.48;47642.09;4992290;28;20172;-78
2023/05/01 01:29:55;;;;;;;14.37;8.93;;;;;;;-141.97;84.32;47799.72;4934256;29;20259;-78
2023/05/01 01:32:42;;;;;;;16.10;10.07;;;;;;;-141.97;84.43;47638.25;4934201;29;20283;-79
2023/05/01 01:35:18;;;;;;;14.70;10.17;;;;;;;-141.97;84.91;47647.84;4934867;29;20679;-78
2023/05/01 01:37:52;;;;;;;15.33;10.40;;;;;;;-141.97;86.63;47718.97;4942265;29;20189;-79
2023/05/01 01:40:27;;;;;;;15.60;11.00;;;;;;;-141.97;87.40;47630.56;4939410;29;20694;-79
2023/05/01 01:43:12;;;;;;;16.50;10.67;;;;;;;-141.97;87.47;47630.56;4919699;29;20173;-79
2023/05/01 01:45:45;;;;;;;16.70;11.10;;;;;;;-141.97;87.11;47634.41;4934180;29;20221;-80
2023/05/01 01:48:14;;;;;;;18.30;12.23;;;;;;;-141.97;86.52;47649.78;4933907;29;20281;-79
2023/05/01 01:50:42;;;;;;;15.20;10.70;;;;;;;-141.97;86.80;47634.41;4934198;29;20744;-79
2023/05/01 01:53:11;;;;;;;17.37;11.13;;;;;;;-141.97;87.71;47630.56;4934741;29;20217;-79
2023/05/01 01:55:39;;;;;;;17.07;11.43;;;;;;;-141.97;87.40;47644.00;4934157;29;20204;-79
2023/05/01 01:58:07;;;;;;;19.87;12.33;;;;;;;-141.97;87.09;47607.50;4952878;29;20571;-79
2023/05/01 02:00:34;;;;;;;21.47;13.37;;;;;;;-141.97;86.60;47670.91;4952853;29;20168;-79
2023/05/01 02:03:01;;;;;;;22.37;13.97;;;;;;;-141.97;85.78;47672.84;4953446;29;20180;-80
2023/05/01 02:05:27;;;;;;;30.80;17.40;;;;;;;-141.97;85.37;47680.53;5014898;28;20250;-79
2023/05/01 02:07:54;;;;;;;19.97;13.17;;;;;;;-141.97;85.49;47657.47;5052631;28;20193;-79
2023/05/01 02:10:21;;;;;;;19.03;12.27;;;;;;;-141.97;85.51;47638.25;5035497;28;20334;-78
2023/05/01 02:12:50;;;;;;;21.57;12.83;;;;;;;-141.97;86.38;47649.78;5035337;28;20169;-78
2023/05/01 02:15:18;;;;;;;21.73;12.90;;;;;;;-141.97;85.86;47642.09;5052347;28;20176;-76
2023/05/01 02:17:44;;;;;;;17.73;11.87;;;;;;;-141.97;85.74;47661.31;5034406;28;20188;-79
2023/05/01 02:20:11;;;;;;;17.77;12.10;;;;;;;-141.97;85.69;47615.19;5034976;28;20636;-79
2023/05/01 02:22:39;;;;;;;17.53;12.67;;;;;;;-141.97;85.71;47613.25;5052450;28;20204;-79
2023/05/01 02:25:08;;;;;;;22.20;14.37;;;;;;;-141.97;85.10;47699.75;5052176;28;20200;-80
2023/05/01 02:27:45;;;;;;;19.23;12.37;;;;;;;-141.97;85.21;47728.59;5052987;28;20558;-79
2023/05/01 02:30:11;;;;;;;18.20;12.20;;;;;;;-141.97;85.08;47665.16;5052315;28;20215;-79
2023/05/01 02:32:36;;;;;;;20.03;12.83;;;;;;;-141.97;86.13;47659.38;5052370;28;20574;-79
2023/05/01 02:35:02;;;;;;;19.17;12.73;;;;;;;-141.97;86.23;47611.34;5052159;28;20172;-79
2023/05/01 02:37:29;;;;;;;20.80;12.93;;;;;;;-141.97;86.44;47647.84;5052845;28;20154;-79
2023/05/01 02:39:55;;;;;;;17.83;11.27;;;;;;;-141.97;85.97;47647.84;5052335;28;20234;-79
2023/05/01 02:42:24;;;;;;;17.77;11.57;;;;;;;-141.97;87.04;47763.19;5052673;28;20166;-79
2023/05/01 02:44:57;;;;;;;18.17;11.63;;;;;;;-141.97;87.02;47628.63;5052481;28;20162;-79
2023/05/01 02:47:23;;;;;;;16.60;11.10;;;;;;;-141.97;87.84;47653.63;5033903;28;20649;-79
2023/05/01 02:49:50;;;;;;;17.40;10.80;;;;;;;-141.97;87.76;47653.63;5052538;28;20633;-79
2023/05/01 02:52:18;;;;;;;15.10;10.90;;;;;;;-141.97;87.58;47661.31;5052649;28;20554;-78
2023/05/01 02:54:44;;;;;;;17.03;10.67;;;;;;;-141.97;87.50;47642.09;5051989;28;20166;-76
2023/05/01 02:57:10;;;;;;;16.87;10.57;;;;;;;-141.97;87.33;47674.78;5051980;28;20168;-78
2023/05/01 02:59:36;;;;;;;17.17;10.77;;;;;;;-141.97;87.90;47622.88;5052084;28;20165;-76
2023/05/01 03:02:01;;;;;;;16.57;10.90;;;;;;;-141.97;88.04;47669.00;5051751;28;20249;-79
2023/05/01 03:04:27;;;;;;;16.47;10.77;;;;;;;-141.97;88.09;47576.75;5052125;28;20169;-79
2023/05/01 03:06:53;;;;;;;16.70;10.90;;;;;;;-141.97;88.17;47653.63;5051899;28;20213;-79
2023/05/01 03:09:19;;;;;;;17.47;10.97;;;;;;;-141.97;88.14;47659.38;5052084;28;20598;-79
2023/05/01 03:11:44;;;;;;;15.80;10.60;;;;;;;-141.97;87.48;47669.00;5052248;28;20188;-78
2023/05/01 03:14:10;;;;;;;18.20;11.20;;;;;;;-141.97;87.47;47661.31;5052122;28;20161;-78
2023/05/01 03:16:36;;;;;;;18.13;11.80;;;;;;;-141.97;87.44;47682.47;5052202;28;20600;-79
2023/05/01 03:19:01;;;;;;;19.67;11.73;;;;;;;-141.97;86.90;47684.38;5034447;28;20618;-79
2023/05/01 03:21:26;;;;;;;18.03;11.43;;;;;;;-141.97;87.10;47672.84;5051919;28;20176;-76
2023/05/01 03:23:52;;;;;;;18.73;11.60;;;;;;;-141.97;87.30;47651.69;5052115;28;20240;-79
2023/05/01 03:26:18;;;;;;;17.70;11.50;;;;;;;-141.97;87.44;47659.38;5059917;28;20307;-79
2023/05/01 03:28:43;;;;;;;16.93;11.57;;;;;;;-141.97;87.45;47663.22;5072352;28;20212;-79
2023/05/01 03:31:09;;;;;;;15.70;10.87;;;;;;;-141.97;87.04;47642.09;5054724;28;20248;-78
2023/05/01 03:33:35;;;;;;;14.60;9.83;;;;;;;-141.97;86.36;47622.88;5038084;28;20654;-79
2023/05/01 03:36:04;;;;;;;16.57;10.03;;;;;;;-141.97;86.26;47651.69;5037108;28;20173;-78
2023/05/01 03:38:31;;;;;;;16.77;10.80;;;;;;;-141.97;86.26;47669.00;5055767;28;20220;-78
2023/05/01 03:40:58;;;;;;;18.43;10.73;;;;;;;-141.97;86.34;47642.09;5055946;28;20664;-80
2023/05/01 03:43:25;;;;;;;15.60;10.37;;;;;;;-141.97;86.08;47803.56;5056231;28;20193;-79
2023/05/01 03:45:51;;;;;;;17.03;10.37;;;;;;;-141.97;86.82;47657.47;5056055;28;20577;-79
2023/05/01 03:48:17;;;;;;;16.83;10.40;;;;;;;-141.97;87.21;47657.47;5055471;28;20193;-79
2023/05/01 03:50:43;;;;;;;18.30;10.63;;;;;;;-141.97;87.07;47645.94;5056054;28;20170;-76
2023/05/01 03:53:08;;;;;;;17.30;11.13;;;;;;;-141.97;88.31;47634.41;5055631;28;20177;-80
2023/05/01 03:55:34;;;;;;;16.63;10.80;;;;;;;-141.97;88.92;47676.69;5037632;28;20561;-79
2023/05/01 03:58:00;;;;;;;17.93;11.17;;;;;;;-141.97;89.08;47655.53;5055759;28;20162;-79
2023/05/01 04:00:25;;;;;;;18.27;11.40;;;;;;;-141.97;88.54;47595.97;5037558;28;20185;-78
2023/05/01 04:02:51;;;;;;;29.43;17.80;;;;;;;-141.97;87.70;47661.31;5037199;28;20173;-79
2023/05/01 04:05:17;;;;;;;21.67;14.93;;;;;;;-141.97;86.92;47684.38;5055430;28;20601;-79
2023/05/01 04:07:43;;;;;;;20.37;12.83;;;;;;;-141.97;85.77;47663.22;5055606;28;20193;-79
2023/05/01 04:10:09;;;;;;;18.17;12.30;;;;;;;-141.97;85.34;47640.16;5055944;28;20633;-79
2023/05/01 04:12:34;;;;;;;19.87;13.73;;;;;;;-141.97;85.10;47657.47;5055398;28;20165;-79
2023/05/01 04:15:00;;;;;;;18.70;12.70;;;;;;;-141.97;84.57;47644.00;5055685;28;20170;-78
2023/05/01 04:17:26;;;;;;;20.17;12.77;;;;;;;-141.97;84.30;47653.63;5055476;28;20195;-76
2023/05/01 04:19:54;;;;;;;27.13;15.10;;;;;;;-141.97;84.31;47638.25;5036849;28;20759;-78
2023/05/01 04:22:20;;;;;;;26.47;14.40;;;;;;;-141.97;84.09;47642.09;5055308;28;20181;-79
2023/05/01 04:24:46;;;;;;;29.47;15.00;;;;;;;-141.97;84.46;47678.63;5054976;28;20311;-78
2023/05/01 04:27:11;;;;;;;26.63;13.37;;;;;;;-141.97;84.54;47682.47;5054619;28;20272;-80
2023/05/01 04:29:36;;;;;;;16.00;9.57;;;;;;;-141.97;83.97;47640.16;5038358;28;20231;-80
2023/05/01 04:32:02;;;;;;;13.23;9.33;;;;;;;-141.97;83.51;47670.91;5056491;28;20248;-80
2023/05/01 04:34:28;;;;;;;14.57;9.13;;;;;;;-141.97;83.25;47657.47;5056170;28;20165;-80
2023/05/01 04:36:56;;;;;;;14.50;9.53;;;;;;;-141.97;82.71;47663.22;5054996;28;20153;-79
2023/05/01 04:39:22;;;;;;;16.77;9.83;;;;;;;-141.97;82.17;47674.78;5054885;28;20221;-79
2023/05/01 04:41:47;;;;;;;19.77;10.73;;;;;;;-141.97;81.54;47678.63;5055342;28;20205;-80
2023/05/01 04:44:13;;;;;;;20.73;10.90;;;;;;;-141.97;80.95;47676.69;5055413;28;20653;-80
2023/05/01 04:46:38;;;;;;;18.27;10.53;;;;;;;-141.97;80.33;47622.88;5054778;28;20230;-76
2023/05/01 04:49:03;;;;;;;15.67;10.03;;;;;;;-141.97;79.89;47653.63;5054772;28;20608;-80
2023/05/01 04:51:29;;;;;;;13.97;10.23;;;;;;;-141.97;79.87;47640.16;5055379;28;20169;-80
2023/05/01 04:53:55;;;;;;;18.97;11.90;;;;;;;-141.97;79.45;47669.00;5055075;28;20248;-80
2023/05/01 04:56:20;;;;;;;20.40;11.10;;;;;;;-141.97;78.79;47684.38;5055042;28;20656;-80
2023/05/01 04:58:46;;;;;;;14.90;10.23;;;;;;;-141.97;77.54;47661.31;5055705;28;20542;-80
2023/05/01 05:01:11;;;;;;;17.30;10.00;;;;;;;-141.97;77.56;47692.06;5054925;28;20165;-81
2023/05/01 05:03:37;;;;;;;16.60;9.93;;;;;;;-141.97;77.09;47669.00;5054797;28;20262;-79
2023/05/01 05:06:02;;;;;;;19.20;10.57;;;;;;;-141.97;76.03;47649.78;5036484;28;20192;-79
2023/05/01 05:08:28;;;;;;;16.00;9.93;;;;;;;-141.97;75.96;47661.31;5036385;28;20320;-81
2023/05/01 05:10:58;;;;;;;15.47;10.47;;;;;;;-141.97;75.99;47703.59;5054581;28;20161;-78
2023/05/01 05:13:24;;;;;;;19.23;12.83;;;;;;;-141.97;76.34;47638.25;5054529;28;20618;-78
2023/05/01 05:15:49;;;;;;;15.83;10.67;;;;;;;-141.97;76.22;47653.63;5053733;28;20154;-79
2023/05/01 05:18:15;;;;;;;24.43;14.90;;;;;;;-141.97;76.42;47622.88;5036806;28;20180;-80
2023/05/01 05:20:40;;;;;;;14.97;10.90;;;;;;;-141.97;75.70;47611.34;5036438;28;20173;-80
2023/05/01 05:23:06;;;;;;;28.80;17.23;;;;;;;-141.97;74.86;47661.31;5038273;28;20629;-80
2023/05/01 05:25:32;;;;;;;19.87;10.87;;;;;;;-141.97;74.12;47684.38;5055129;28;20219;-80
2023/05/01 05:27:58;;;;;;;14.30;9.97;;;;;;;-141.97;75.11;47651.69;5054309;28;20193;-80
2023/05/01 05:30:23;;;;;;;13.87;9.87;;;;;;;-141.97;75.19;47655.53;5053854;28;20589;-81
2023/05/01 05:32:49;;;;;;;14.17;9.47;;;;;;;-141.97;73.97;47603.66;5053924;28;20199;-79
2023/05/01 05:35:14;;;;;;;13.63;9.83;;;;;;;-141.97;75.12;47632.47;5054087;28;20654;-78
2023/05/01 05:37:40;;;;;;;13.93;9.00;;;;;;;-141.97;76.23;47676.69;5054247;28;20165;-80
2023/05/01 05:40:06;;;;;;;12.87;9.10;;;;;;;-141.97;74.73;47484.47;5054531;28;20158;-79
2023/05/01 05:42:32;;;;;;;13.27;9.33;;;;;;;-141.97;73.82;47672.84;5054113;28;20230;-80
2023/05/01 05:44:58;;;;;;;13.23;9.30;;;;;;;-141.97;73.62;47647.84;5054602;28;20201;-79
2023/05/01 05:47:23;;;;;;;16.90;9.17;;;;;;;-141.97;74.04;47634.41;5054172;28;20674;-80
2023/05/01 05:49:48;;;;;;;11.60;8.47;;;;;;;-141.97;73.13;47695.91;5053631;28;20268;-80
2023/05/01 05:52:14;;;;;;;11.83;8.50;;;;;;;-141.97;73.36;47634.41;5053580;28;20166;-79
2023/05/01 05:54:39;;;;;;;12.47;9.20;;;;;;;-141.97;73.91;47603.66;5053915;28;20241;-79
2023/05/01 05:57:05;;;;;;;14.03;9.17;;;;;;;-141.97;73.60;47670.91;5053423;28;20240;-80
2023/05/01 05:59:30;;;;;;;13.07;9.37;;;;;;;-141.97;72.20;47628.63;5052755;28;20183;-80
2023/05/01 06:01:56;;;;;;;13.87;9.40;;;;;;;-141.97;70.79;47718.97;5052713;28;20169;-80
2023/05/01 06:04:21;;;;;;;13.60;8.60;;;;;;;-141.97;69.18;47636.31;5052569;28;20164;-79
2023/05/01 06:06:48;;;;;;;11.57;8.07;;;;;;;-141.97;67.33;47622.88;5052560;28;20269;-79
2023/05/01 06:09:14;;;;;;;11.27;7.53;;;;;;;-141.97;65.82;47642.09;5051794;28;20157;-80
2023/05/01 06:11:39;;;;;;;9.13;6.90;;;;;;;-141.97;65.06;47599.81;5034942;28;20600;-80
2023/05/01 06:14:05;;;;;;;8.40;6.73;;;;;;;-141.97;63.80;47792.03;5053023;28;20706;-79
2023/05/01 06:16:31;;;;;;;11.93;7.43;;;;;;;-141.97;63.49;47603.66;5034495;28;20182;-79
2023/05/01 06:18:56;;;;;;;10.13;7.80;;;;;;;-141.97;62.95;47572.91;5034448;28;20165;-80
2023/05/01 06:21:22;;;;;;;12.53;7.10;;;;;;;-141.97;61.21;47603.66;5034795;28;20626;-79
2023/05/01 06:23:47;;;;;;;10.50;7.90;;;;;;;-141.97;61.27;47634.41;5052344;28;20518;-80
2023/05/01 06:26:12;;;;;;;11.57;8.03;;;;;;;-141.97;61.01;47611.34;5052664;28;20256;-80
2023/05/01 06:28:38;;;;;;;9.17;6.50;;;;;;;-141.97;59.32;47572.91;5052411;28;20785;-79
2023/05/01 06:31:04;;;;;;;9.83;7.50;;;;;;;-141.97;59.07;47597.88;5052148;28;20170;-80
2023/05/01 06:33:29;;;;;;;10.53;7.80;;;;;;;-141.97;58.92;47597.88;5053391;28;20177;-78
2023/05/01 06:35:58;;;;;;;10.30;7.50;;;;;;;-141.97;57.92;47607.50;5053001;28;20622;-80
2023/05/01 06:38:23;;;;;;;12.90;8.13;;;;;;;-141.97;57.75;47747.81;5052423;28;20225;-81
2023/05/01 06:40:49;;;;;;;20.30;12.37;;;;;;;-141.97;57.46;47584.44;5052076;28;20161;-81
2023/05/01 06:43:14;;;;;;;15.03;10.27;;;;;;;-141.97;56.91;47570.97;5010045;28;20711;-80
2023/05/01 06:45:40;;;;;;;12.73;7.57;;;;;;;-141.97;56.43;47601.72;5050673;28;20247;-80
2023/05/01 06:48:06;;;;;;;14.40;9.93;;;;;;;-141.97;56.07;47613.25;5051710;28;20192;-81
2023/05/01 06:50:31;;;;;;;10.63;7.53;;;;;;;-141.97;56.65;47597.88;5051796;28;20165;-80
2023/05/01 06:52:59;;;;;;;14.93;8.67;;;;;;;-141.97;56.84;47622.88;5033686;28;20591;-80
2023/05/01 06:55:24;;;;;;;11.47;7.73;;;;;;;-141.97;56.14;47615.19;5015754;28;20213;-79
2023/05/01 06:57:50;;;;;;;10.03;7.20;;;;;;;-141.97;54.39;47692.06;5014191;28;20200;-79
2023/05/01 07:00:16;;;;;;;9.67;6.37;;;;;;;-141.97;55.29;47544.06;5031287;28;20217;-80
2023/05/01 07:02:43;;;;;;;8.47;6.47;;;;;;;-141.97;55.80;47590.19;5041788;28;20239;-80
2023/05/01 07:05:09;;;;;;;14.87;8.23;;;;;;;-141.97;55.45;47484.47;5037585;28;20170;-81
2023/05/01 07:07:35;;;;;;;12.87;8.03;;;;;;;-141.97;54.06;47615.19;5032576;28;20260;-80
2023/05/01 07:10:01;;;;;;;9.00;6.60;;;;;;;-141.97;53.58;47584.44;5032141;28;20236;-80
2023/05/01 07:12:28;;;;;;;9.37;7.03;;;;;;;-141.97;53.30;47584.44;5031810;28;20170;-81
2023/05/01 07:14:55;;;;;;;7.20;6.30;;;;;;;-141.97;53.36;47611.34;5031334;28;20551;-80
2023/05/01 07:17:21;;;;;;;18.57;11.20;;;;;;;-141.97;52.43;47599.81;5031960;28;20189;-80
2023/05/01 07:19:46;;;;;;;12.93;7.97;;;;;;;-141.97;51.06;47597.88;5014328;28;20631;-80
2023/05/01 07:22:11;;;;;;;12.60;8.13;;;;;;;-141.97;50.98;47519.06;5031913;28;20158;-81
2023/05/01 07:24:37;;;;;;;9.63;6.43;;;;;;;-141.97;50.87;47436.44;5014088;28;20247;-80
2023/05/01 07:27:03;;;;;;;13.33;8.30;;;;;;;-141.97;49.89;47507.53;5031131;28;20277;-80
2023/05/01 07:29:28;;;;;;;9.80;6.17;;;;;;;-141.97;49.32;47546.00;5031371;28;20185;-77
2023/05/01 07:31:54;;;;;;;7.43;6.00;;;;;;;-141.97;50.00;47605.56;5030902;28;20235;-80
2023/05/01 07:34:19;;;;;;;11.30;7.00;;;;;;;-141.97;49.83;47619.03;5030919;28;20178;-80
2023/05/01 07:36:45;;;;;;;9.00;6.83;;;;;;;-141.97;50.46;47444.13;5032166;28;20166;-80
2023/05/01 07:39:11;;;;;;;9.47;6.40;;;;;;;-141.97;49.66;47588.28;5031746;28;20229;-79
2023/05/01 07:41:36;;;;;;;10.80;7.40;;;;;;;-141.97;48.61;47549.84;5031743;28;20176;-79
2023/05/01 07:44:02;;;;;;;6.93;6.00;;;;;;;-141.97;48.26;47542.16;5005304;28;20237;-81
2023/05/01 07:46:28;;;;;;;8.50;5.70;;;;;;;-141.97;47.32;47580.59;5013700;28;20184;-81
2023/05/01 07:48:53;;;;;;;8.47;6.63;;;;;;;-141.97;47.41;47461.41;5031525;28;20326;-81
2023/05/01 07:51:19;;;;;;;6.43;5.50;;;;;;;-141.97;46.94;47524.84;5032479;28;20166;-81
2023/05/01 07:53:46;;;;;;;7.03;6.20;;;;;;;-141.97;46.42;47546.00;5019862;28;20196;-80
2023/05/01 07:56:11;;;;;;;7.47;6.20;;;;;;;-141.97;46.65;47503.69;5007003;28;20233;-77
2023/05/01 07:58:37;;;;;;;8.07;6.57;;;;;;;-141.97;47.11;47567.13;5047094;28;20189;-80
2023/05/01 08:01:02;;;;;;;9.37;6.57;;;;;;;-141.97;47.75;47530.59;5049018;28;20709;-81
2023/05/01 08:03:29;;;;;;;8.93;6.07;;;;;;;-141.97;47.34;47471.03;5032874;28;20174;-81
2023/05/01 08:05:55;;;;;;;7.07;5.83;;;;;;;-141.97;45.88;47690.16;5033158;28;20162;-80
2023/05/01 08:08:20;;;;;;;7.40;6.10;;;;;;;-141.97;46.04;47557.53;5031996;28;20550;-80
2023/05/01 08:10:46;;;;;;;8.97;7.67;;;;;;;-141.97;45.77;47661.31;5031925;28;20163;-80
2023/05/01 08:13:12;;;;;;;7.80;6.27;;;;;;;-141.97;44.74;47526.75;5030843;28;20239;-81
2023/05/01 08:15:38;;;;;;;7.40;5.97;;;;;;;-141.97;44.44;47538.28;5031751;28;20586;-80
2023/05/01 08:18:04;;;;;;;8.57;5.90;;;;;;;-141.97;44.31;47461.41;5031099;28;20599;-80
2023/05/01 08:20:30;;;;;;;9.73;6.57;;;;;;;-141.97;44.56;47551.75;5031426;28;20201;-81
2023/05/01 08:22:55;;;;;;;6.93;5.97;;;;;;;-141.97;44.57;47553.69;5012963;28;20186;-79
2023/05/01 08:25:21;;;;;;;8.90;7.00;;;;;;;-141.97;45.63;47524.84;5034471;28;20170;-80
2023/05/01 08:27:48;;;;;;;9.83;6.90;;;;;;;-141.97;44.89;47474.88;5034580;28;20260;-79
2023/05/01 08:30:13;;;;;;;10.17;6.60;;;;;;;-141.97;44.25;47544.06;5017036;28;20174;-82
2023/05/01 08:32:39;;;;;;;6.90;5.80;;;;;;;-141.97;43.84;47469.09;5034978;28;20232;-80
2023/05/01 08:35:04;;;;;;;7.90;5.17;;;;;;;-141.97;42.42;47436.44;5034924;28;20169;-81
2023/05/01 08:37:30;;;;;;;6.33;4.80;;;;;;;-141.97;41.53;47536.38;5034379;28;20577;-81
2023/05/01 08:39:55;;;;;;;5.13;4.53;;;;;;;-141.97;40.60;47661.31;5033913;28;20260;-81
2023/05/01 08:42:21;;;;;;;5.60;4.90;;;;;;;-141.97;41.24;47665.16;5033532;28;20166;-81
2023/05/01 08:44:47;;;;;;;10.23;5.20;;;;;;;-141.97;41.00;47736.28;5034429;28;20254;-81
2023/05/01 08:47:13;;;;;;;6.23;4.77;;;;;;;-141.97;40.27;47526.75;5034334;28;20604;-81
2023/05/01 08:49:40;;;;;;;6.47;4.57;;;;;;;-141.97;39.58;47538.28;5044553;28;20272;-80
2023/05/01 08:52:24;;;;;;;4.97;4.47;;;;;;;-141.97;39.07;47496.00;5049052;28;20257;-81
2023/05/01 08:55:14;;;;;;;7.87;5.53;;;;;;;-141.97;39.85;47453.72;5000708;28;20304;-82
2023/05/01 08:57:46;;;;;;;7.93;4.67;;;;;;;-141.97;40.38;47536.38;5016446;28;20225;-82
2023/05/01 09:00:20;;;;;;;14.00;5.40;;;;;;;-141.97;39.93;47505.63;5033661;28;20188;-81
2023/05/01 09:02:47;;;;;;;7.80;5.13;;;;;;;-141.97;39.42;47338.41;5033539;28;20177;-82
2023/05/01 09:05:15;;;;;;;6.97;4.90;;;;;;;-141.97;39.85;47686.31;5034534;28;20178;-81
2023/05/01 09:07:42;;;;;;;5.13;4.60;;;;;;;-141.97;40.11;47703.59;5033864;28;20194;-81
2023/05/01 09:10:10;;;;;;;5.53;4.57;;;;;;;-141.97;40.23;47669.00;5020486;28;20684;-81
2023/05/01 09:12:36;;;;;;;5.60;4.80;;;;;;;-141.97;39.57;47692.06;5028674;28;20181;-80
2023/05/01 09:15:03;;;;;;;7.67;5.17;;;;;;;-141.97;40.17;47505.63;5016714;28;20256;-80
2023/05/01 09:17:30;;;;;;;5.80;5.20;;;;;;;-141.97;40.17;47611.34;5035087;28;20166;-80
2023/05/01 09:19:56;;;;;;;6.87;4.80;;;;;;;-141.97;40.89;47595.97;5022371;28;20181;-81
2023/05/01 09:22:22;;;;;;;5.40;4.60;;;;;;;-141.97;41.53;47488.31;5053218;28;20154;-82
2023/05/01 09:24:47;;;;;;;6.17;4.40;;;;;;;-141.97;40.99;47346.09;5032264;28;20198;-81
2023/05/01 09:27:13;;;;;;;6.07;4.27;;;;;;;-141.97;40.36;47384.53;5041868;28;20202;-82
2023/05/01 09:29:40;;;;;;;4.30;3.90;;;;;;;-141.97;39.05;47530.59;5034724;28;20166;-81
2023/05/01 09:32:13;;;;;;;5.53;4.57;;;;;;;-141.97;39.55;47663.22;5033157;28;20261;-82
2023/05/01 09:34:39;;;;;;;6.40;4.13;;;;;;;-141.97;39.43;47728.59;5016656;28;20181;-81
2023/05/01 09:37:05;;;;;;;5.83;4.10;;;;;;;-141.97;39.58;47463.34;5036454;28;20162;-81
2023/05/01 09:39:33;;;;;;;6.00;4.40;;;;;;;-141.97;39.93;47407.59;5017327;28;20232;-82
2023/05/01 09:41:59;;;;;;;9.13;4.70;;;;;;;-141.97;40.01;47315.34;5019005;28;20178;-82
2023/05/01 09:44:26;;;;;;;6.07;4.80;;;;;;;-141.97;40.94;47590.19;5036865;28;20166;-81
2023/05/01 09:46:53;;;;;;;5.57;4.40;;;;;;;-141.97;40.24;47544.06;5020409;28;20257;-84
2023/05/01 09:49:19;;;;;;;5.77;4.53;;;;;;;-141.97;41.04;47349.94;5039852;28;20178;-82
2023/05/01 09:51:44;;;;;;;6.43;4.83;;;;;;;-141.97;41.59;47569.06;5022211;28;20678;-82
2023/05/01 09:54:19;;;;;;;5.47;4.70;;;;;;;-141.97;41.26;47661.31;5039650;28;20184;-82
2023/05/01 09:56:46;;;;;;;5.43;4.53;;;;;;;-141.97;40.75;47557.53;5042104;28;20233;-81
2023/05/01 09:59:19;;;;;;;6.30;4.57;;;;;;;-141.97;42.05;47557.53;5051058;28;20248;-82
2023/05/01 10:01:47;;;;;;;5.60;4.80;;;;;;;-141.97;41.91;47743.97;5050415;28;20170;-83
2023/05/01 10:04:13;;;;;;;5.43;4.43;;;;;;;-141.97;40.89;47663.22;5037927;28;20633;-81
2023/05/01 10:06:38;;;;;;;5.90;4.17;;;;;;;-141.97;40.31;47555.59;5055118;28;20162;-81
2023/05/01 10:09:06;;;;;;;5.73;4.30;;;;;;;-141.97;39.96;47417.22;5054084;28;20192;-82
2023/05/01 10:11:53;;;;;;;5.13;4.40;;;;;;;-141.97;39.70;47451.81;5053473;28;20169;-81
2023/05/01 10:14:19;;;;;;;6.70;4.17;;;;;;;-141.97;39.88;47538.28;5033231;28;20173;-82
2023/05/01 10:16:45;;;;;;;5.13;4.57;;;;;;;-141.97;39.55;47542.16;5032911;28;20150;-82
2023/05/01 10:19:12;;;;;;;4.60;4.20;;;;;;;-141.97;39.13;47530.59;5033746;28;20185;-81
2023/05/01 10:21:38;;;;;;;4.87;3.90;;;;;;;-141.97;38.23;47538.28;5033542;28;20162;-81
2023/05/01 10:24:04;;;;;;;6.87;4.53;;;;;;;-141.97;37.28;47446.03;5050445;28;20172;-80
2023/05/01 10:26:34;;;;;;;5.60;4.50;;;;;;;-141.97;37.92;47549.84;5053043;28;20184;-81
2023/05/01 10:29:01;;;;;;;9.60;4.90;;;;;;;-141.97;38.16;47532.53;5052547;28;20200;-81
2023/05/01 10:31:27;;;;;;;7.20;4.70;;;;;;;-141.97;38.81;47549.84;5053349;28;20261;-80
2023/05/01 10:33:53;;;;;;;6.33;4.80;;;;;;;-141.97;39.14;47559.44;5052231;28;20653;-81
2023/05/01 10:36:27;;;;;;;5.53;4.50;;;;;;;-141.97;39.98;47549.84;5053614;28;20225;-82
2023/05/01 10:38:53;;;;;;;5.83;4.27;;;;;;;-141.97;40.11;47569.06;5052432;28;20312;-81
2023/05/01 10:41:56;;;;;;;8.30;4.57;;;;;;;-141.97;39.85;47547.91;5053684;28;20197;-80
2023/05/01 10:44:23;;;;;;;5.07;4.27;;;;;;;-141.97;39.07;47557.53;5058021;28;20195;-80
2023/05/01 10:46:50;;;;;;;7.17;4.10;;;;;;;-141.97;38.67;47530.59;5053880;28;20207;-81
2023/05/01 10:49:16;;;;;;;6.70;4.50;;;;;;;-141.97;38.39;47542.16;5052894;28;20235;-76
2023/05/01 10:51:58;;;;;;;7.00;4.20;;;;;;;-141.97;38.46;47538.28;5034183;28;20177;-82
2023/05/01 10:54:25;;;;;;;5.57;4.23;;;;;;;-141.97;37.59;47534.44;5032356;28;20174;-81
2023/05/01 10:56:52;;;;;;;6.57;4.27;;;;;;;-141.97;37.65;47553.69;5022699;28;20244;-81
2023/05/01 10:59:18;;;;;;;8.17;4.20;;;;;;;-141.97;37.96;47526.75;5032228;28;20227;-82
2023/05/01 11:01:46;;;;;;;5.83;4.30;;;;;;;-141.97;37.59;47517.16;5031844;28;20641;-82
2023/05/01 11:04:21;;;;;;;5.33;4.30;;;;;;;-141.97;37.85;47534.44;5032132;28;20634;-80
2023/05/01 11:07:06;;;;;;;5.47;4.33;;;;;;;-141.97;37.70;47534.44;5032243;28;20172;-81
2023/05/01 11:09:34;;;;;;;5.30;3.87;;;;;;;-141.97;38.36;47521.00;5013959;28;20260;-79
2023/05/01 11:12:00;;;;;;;6.80;4.30;;;;;;;-141.97;37.95;47376.84;5032013;28;20217;-82